Time;durP1;ratioP1;P1;durP2;ratioP2;P2;SDS_P1;SDS_P2;PMS_P1;PMS_P2;Temp;Humidity;BMP_temperature;BMP_pressure;BME280_temperature;BME280_humidity;BME280_pressure;Samples;Min_cycle;Max_cycle;Signal;HPM_P1;HPM_P2
2022/11/23 00:01:45;;;;;;;16.58;5.25;;;;;;;7.61;100.00;99528.22;5039987;28;20013;-70
2022/11/23 00:04:12;;;;;;;15.60;5.57;;;;;;;7.62;100.00;99531.69;5040876;28;20019;-69
2022/11/23 00:06:38;;;;;;;14.98;5.32;;;;;;;7.61;100.00;99530.81;5036043;28;20072;-70
2022/11/23 00:09:04;;;;;;;20.55;5.60;;;;;;;7.64;100.00;99532.59;5040043;28;20021;-69
2022/11/23 00:11:33;;;;;;;14.75;5.43;;;;;;;7.63;100.00;99533.41;5039170;28;20041;-70
2022/11/23 00:13:58;;;;;;;15.48;4.63;;;;;;;7.64;100.00;99528.25;5041615;28;20025;-70
2022/11/23 00:16:27;;;;;;;14.20;4.95;;;;;;;7.65;100.00;99534.34;5040507;28;20025;-70
2022/11/23 00:18:53;;;;;;;13.10;4.85;;;;;;;7.65;100.00;99539.53;5040612;28;20044;-70
2022/11/23 00:21:20;;;;;;;13.63;4.70;;;;;;;7.65;100.00;99536.94;5029991;28;20021;-70
2022/11/23 00:23:45;;;;;;;15.00;4.70;;;;;;;7.65;100.00;99536.94;5041405;28;20080;-69
2022/11/23 00:26:11;;;;;;;16.88;4.95;;;;;;;7.65;100.00;99536.94;5033024;28;20021;-70
2022/11/23 00:28:38;;;;;;;15.73;4.63;;;;;;;7.65;100.00;99542.97;5038809;28;20029;-70
2022/11/23 00:31:05;;;;;;;13.07;4.45;;;;;;;7.66;100.00;99539.53;5037553;28;20022;-70
2022/11/23 00:33:30;;;;;;;12.23;3.90;;;;;;;7.66;100.00;99544.72;5033520;28;20029;-69
2022/11/23 00:36:13;;;;;;;12.73;4.30;;;;;;;7.66;100.00;99549.91;5031784;28;20089;-70
2022/11/23 00:38:39;;;;;;;10.35;3.88;;;;;;;7.68;100.00;99541.28;5043394;28;20029;-69
2022/11/23 00:41:10;;;;;;;15.68;4.68;;;;;;;7.68;100.00;99547.34;5034840;28;20056;-70
2022/11/23 00:43:36;;;;;;;11.35;4.03;;;;;;;7.68;100.00;99555.13;5039784;28;20033;-69
2022/11/23 00:46:22;;;;;;;13.07;4.05;;;;;;;7.69;100.00;99551.69;5037362;28;20027;-70
2022/11/23 00:48:50;;;;;;;7.72;3.30;;;;;;;7.70;100.00;99558.59;5040584;28;20085;-70
2022/11/23 00:51:18;;;;;;;11.32;3.47;;;;;;;7.70;100.00;99553.41;5036039;28;20272;-70
2022/11/23 00:53:44;;;;;;;8.57;3.13;;;;;;;7.71;100.00;99554.28;5041235;28;20025;-69
2022/11/23 00:56:09;;;;;;;11.23;3.80;;;;;;;7.70;100.00;99556.00;5040890;28;20030;-69
2022/11/23 00:58:38;;;;;;;12.35;4.00;;;;;;;7.71;100.00;99559.47;5033415;28;20065;-70
2022/11/23 01:01:07;;;;;;;13.73;3.58;;;;;;;7.71;100.00;99562.94;5036203;28;20021;-69
2022/11/23 01:03:33;;;;;;;9.88;3.45;;;;;;;7.71;100.00;99557.75;5032184;28;20032;-69
2022/11/23 01:06:10;;;;;;;12.75;3.72;;;;;;;7.71;100.00;99557.75;5030190;28;20022;-70
2022/11/23 01:08:36;;;;;;;9.80;3.38;;;;;;;7.71;100.00;99557.75;5030696;28;20084;-70
2022/11/23 01:11:05;;;;;;;15.20;3.42;;;;;;;7.70;100.00;99561.19;5033640;28;20184;-69
2022/11/23 01:13:30;;;;;;;11.00;3.10;;;;;;;7.71;100.00;99568.13;5028535;28;20056;-69
2022/11/23 01:15:56;;;;;;;10.07;3.90;;;;;;;7.71;100.00;99559.47;5043330;28;20522;-70
2022/11/23 01:18:22;;;;;;;11.18;3.10;;;;;;;7.71;100.00;99569.84;5035478;28;20018;-70
2022/11/23 01:20:47;;;;;;;10.82;3.90;;;;;;;7.70;100.00;99566.38;5042848;28;20275;-69
2022/11/23 01:23:12;;;;;;;10.15;3.03;;;;;;;7.70;100.00;99566.38;5039425;28;20084;-69
2022/11/23 01:25:38;;;;;;;9.95;3.10;;;;;;;7.71;100.00;99557.75;5042696;28;20032;-70
2022/11/23 01:28:03;;;;;;;12.88;3.90;;;;;;;7.72;100.00;99571.56;5040508;28;20157;-69
2022/11/23 01:30:29;;;;;;;11.52;3.60;;;;;;;7.71;100.00;99569.84;5030426;28;20114;-70
2022/11/23 01:32:54;;;;;;;9.60;3.42;;;;;;;7.70;100.00;99571.56;5036357;28;20229;-70
2022/11/23 01:35:19;;;;;;;11.55;3.67;;;;;;;7.70;100.00;99576.72;5038667;28;20084;-69
2022/11/23 01:37:44;;;;;;;11.45;3.30;;;;;;;7.70;100.00;99575.88;5040879;28;20048;-70
2022/11/23 01:40:10;;;;;;;9.32;3.25;;;;;;;7.71;100.00;99586.25;5041718;28;20026;-70
2022/11/23 01:42:52;;;;;;;11.73;3.00;;;;;;;7.71;100.00;99581.09;5042073;28;20037;-69
2022/11/23 01:45:40;;;;;;;12.75;3.15;;;;;;;7.72;100.00;99584.53;5040426;28;20228;-69
2022/11/23 01:48:16;;;;;;;16.05;3.63;;;;;;;7.71;100.00;99590.59;5041619;28;20033;-70
2022/11/23 01:50:43;;;;;;;13.80;2.67;;;;;;;7.70;100.00;99587.09;5045904;28;20095;-70
2022/11/23 01:53:08;;;;;;;12.05;2.90;;;;;;;7.70;100.00;99584.50;5037484;28;20044;-70
2022/11/23 01:55:35;;;;;;;13.07;2.88;;;;;;;7.71;100.00;99588.84;5043100;28;20013;-70
2022/11/23 01:58:03;;;;;;;8.18;2.50;;;;;;;7.72;100.00;99579.34;5035737;28;20028;-70
2022/11/23 02:00:28;;;;;;;10.52;2.55;;;;;;;7.72;100.00;99584.53;5038911;28;20059;-69
2022/11/23 02:02:57;;;;;;;8.07;2.92;;;;;;;7.73;100.00;99592.34;5027458;28;20029;-69
2022/11/23 02:05:29;;;;;;;7.65;2.58;;;;;;;7.73;100.00;99599.25;5041058;28;20291;-69
2022/11/23 02:07:55;;;;;;;11.88;2.67;;;;;;;7.74;100.00;99596.69;5040093;28;20018;-69
2022/11/23 02:10:21;;;;;;;11.05;3.35;;;;;;;7.74;100.00;99601.88;5036189;28;20074;-70
2022/11/23 02:12:47;;;;;;;10.65;2.70;;;;;;;7.73;100.00;99602.69;5042759;28;20069;-69
2022/11/23 02:15:12;;;;;;;7.15;2.30;;;;;;;7.74;100.00;99607.06;5042302;28;20029;-69
2022/11/23 02:17:37;;;;;;;10.70;2.70;;;;;;;7.75;100.00;99607.91;5034490;28;20022;-69
2022/11/23 02:20:08;;;;;;;8.45;2.90;;;;;;;7.74;100.00;99601.88;5043366;28;20216;-69
2022/11/23 02:22:52;;;;;;;11.00;2.50;;;;;;;7.77;100.00;99599.31;5043318;28;20044;-69
2022/11/23 02:25:35;;;;;;;8.77;2.55;;;;;;;7.77;100.00;99604.50;5043341;28;20061;-69
2022/11/23 02:28:01;;;;;;;12.07;2.97;;;;;;;7.77;100.00;99603.63;5035845;28;20029;-70
2022/11/23 02:30:31;;;;;;;12.13;3.58;;;;;;;7.78;100.00;99611.44;5037731;28;20083;-69
2022/11/23 02:32:56;;;;;;;11.43;2.30;;;;;;;7.78;100.00;99600.22;5026772;28;20028;-69
2022/11/23 02:35:21;;;;;;;10.52;2.53;;;;;;;7.79;100.00;99612.28;5036571;28;20033;-69
2022/11/23 02:37:49;;;;;;;8.88;2.50;;;;;;;7.79;100.00;99613.19;5040908;28;20044;-70
2022/11/23 02:40:35;;;;;;;12.25;3.13;;;;;;;7.80;100.00;99614.06;5036922;28;20088;-69
2022/11/23 02:43:00;;;;;;;13.07;3.25;;;;;;;7.81;100.00;99613.22;5042372;28;20339;-69
2022/11/23 02:45:49;;;;;;;9.70;2.60;;;;;;;7.80;100.00;99617.50;5039723;28;20072;-69
2022/11/23 02:48:14;;;;;;;10.85;3.00;;;;;;;7.80;100.00;99612.31;5040967;28;20029;-70
2022/11/23 02:50:40;;;;;;;13.02;3.00;;;;;;;7.80;100.00;99604.53;5045099;28;20023;-70
2022/11/23 02:53:05;;;;;;;13.57;2.90;;;;;;;7.79;100.00;99610.59;5037797;28;20264;-69
2022/11/23 02:55:31;;;;;;;13.57;2.83;;;;;;;7.80;100.00;99609.72;5036061;28;20048;-69
2022/11/23 02:57:56;;;;;;;10.68;3.03;;;;;;;7.79;100.00;99613.19;5036150;28;20029;-70
2022/11/23 03:00:22;;;;;;;11.88;3.08;;;;;;;7.79;100.00;99620.97;5039241;28;20018;-69
2022/11/23 03:02:47;;;;;;;11.02;3.08;;;;;;;7.79;100.00;99613.19;5043677;28;20056;-69
2022/11/23 03:05:12;;;;;;;10.88;3.03;;;;;;;7.78;100.00;99614.03;5043514;28;20169;-70
2022/11/23 03:07:37;;;;;;;12.18;3.13;;;;;;;7.76;100.00;99613.16;5042338;28;20128;-69
2022/11/23 03:10:03;;;;;;;12.80;3.45;;;;;;;7.76;100.00;99620.94;5035542;28;20068;-70
2022/11/23 03:12:29;;;;;;;9.60;2.75;;;;;;;7.76;100.00;99622.63;5040086;28;20036;-70
2022/11/23 03:14:54;;;;;;;15.18;3.28;;;;;;;7.76;100.00;99620.94;5042616;28;20017;-69
2022/11/23 03:17:19;;;;;;;16.92;3.28;;;;;;;7.76;100.00;99620.94;5043069;28;20033;-70
2022/11/23 03:19:45;;;;;;;13.02;3.17;;;;;;;7.75;100.00;99620.88;5039080;28;20025;-69
2022/11/23 03:22:10;;;;;;;16.80;3.20;;;;;;;7.74;100.00;99622.59;5038219;28;20025;-70
2022/11/23 03:24:35;;;;;;;14.07;2.85;;;;;;;7.74;100.00;99625.19;5038201;28;20157;-70
2022/11/23 03:27:01;;;;;;;12.77;3.00;;;;;;;7.73;100.00;99623.44;5030899;28;20275;-70
2022/11/23 03:29:26;;;;;;;12.85;2.85;;;;;;;7.73;100.00;99628.63;5036285;28;20036;-69
2022/11/23 03:31:52;;;;;;;19.58;3.63;;;;;;;7.74;100.00;99630.38;5038141;28;20017;-70
2022/11/23 03:34:18;;;;;;;11.60;3.10;;;;;;;7.73;100.00;99623.44;5035582;28;20072;-70
2022/11/23 03:36:43;;;;;;;11.65;2.97;;;;;;;7.73;100.00;99622.59;5039348;28;20025;-69
2022/11/23 03:39:09;;;;;;;7.82;2.30;;;;;;;7.71;100.00;99622.56;5039808;28;20033;-69
2022/11/23 03:41:34;;;;;;;14.50;3.10;;;;;;;7.71;100.00;99622.56;5028384;28;20022;-69
2022/11/23 03:44:00;;;;;;;12.40;3.20;;;;;;;7.71;100.00;99621.69;5031889;28;20060;-69
2022/11/23 03:46:25;;;;;;;11.05;3.13;;;;;;;7.70;100.00;99614.75;5042050;28;20064;-69
2022/11/23 03:48:50;;;;;;;11.95;2.72;;;;;;;7.68;100.00;99625.13;5031883;28;20029;-69
2022/11/23 03:51:16;;;;;;;11.50;3.22;;;;;;;7.67;99.76;99623.34;5032258;28;20153;-70
2022/11/23 03:53:41;;;;;;;11.45;3.03;;;;;;;7.68;99.43;99614.75;5037638;28;20287;-70
2022/11/23 03:56:07;;;;;;;14.95;3.03;;;;;;;7.67;99.56;99628.53;5041380;28;20032;-70
2022/11/23 03:58:32;;;;;;;10.40;3.30;;;;;;;7.68;99.65;99613.88;5038284;28;20033;-70
2022/11/23 04:00:57;;;;;;;14.80;3.03;;;;;;;7.68;99.07;99619.94;5032173;28;20159;-69
2022/11/23 04:03:23;;;;;;;10.73;3.22;;;;;;;7.66;98.94;99622.50;5036978;28;20021;-69
2022/11/23 04:05:48;;;;;;;12.18;2.67;;;;;;;7.67;99.14;99623.34;5041572;28;20024;-69
2022/11/23 04:08:13;;;;;;;12.00;2.63;;;;;;;7.68;98.77;99624.25;5041749;28;20093;-70
2022/11/23 04:10:38;;;;;;;13.18;3.28;;;;;;;7.67;98.93;99631.13;5039905;28;20047;-69
2022/11/23 04:13:04;;;;;;;13.65;3.05;;;;;;;7.67;99.22;99631.13;5029693;28;20036;-69
2022/11/23 04:15:29;;;;;;;10.35;2.75;;;;;;;7.68;98.86;99630.28;5035703;28;20009;-70
2022/11/23 04:17:54;;;;;;;12.75;3.13;;;;;;;7.69;99.24;99633.75;5038987;28;20067;-70
2022/11/23 04:20:20;;;;;;;12.05;2.83;;;;;;;7.69;99.02;99626.88;5041426;28;20025;-69
2022/11/23 04:22:45;;;;;;;10.70;2.75;;;;;;;7.69;98.76;99626.88;5028002;28;20232;-70
2022/11/23 04:25:10;;;;;;;10.48;2.78;;;;;;;7.69;98.61;99623.38;5040745;28;20048;-70
2022/11/23 04:27:36;;;;;;;11.88;3.22;;;;;;;7.69;98.71;99624.28;5037702;28;20033;-70
2022/11/23 04:30:01;;;;;;;12.73;3.05;;;;;;;7.70;98.16;99622.53;5035745;28;20084;-69
2022/11/23 04:32:26;;;;;;;11.25;3.10;;;;;;;7.70;97.74;99627.72;5036422;28;20020;-69
2022/11/23 04:34:51;;;;;;;12.98;2.92;;;;;;;7.71;97.85;99621.69;5030011;28;20033;-69
2022/11/23 04:37:17;;;;;;;16.70;3.22;;;;;;;7.71;97.44;99619.09;5040585;28;20021;-70
2022/11/23 04:39:42;;;;;;;12.77;3.35;;;;;;;7.71;97.47;99619.09;5037665;28;20036;-70
2022/11/23 04:42:10;;;;;;;14.20;2.95;;;;;;;7.70;97.42;99623.41;5039552;28;20036;-70
2022/11/23 04:44:35;;;;;;;12.07;3.30;;;;;;;7.69;96.89;99625.97;5040469;28;20129;-69
2022/11/23 04:47:00;;;;;;;9.35;2.70;;;;;;;7.69;97.17;99634.66;5038977;28;20260;-69
2022/11/23 04:49:26;;;;;;;10.10;2.70;;;;;;;7.68;97.15;99630.28;5031805;28;20025;-69
2022/11/23 04:51:51;;;;;;;16.63;3.10;;;;;;;7.69;96.52;99626.88;5036389;28;20276;-69
2022/11/23 04:54:16;;;;;;;12.35;2.75;;;;;;;7.69;96.36;99633.75;5043650;28;20772;-70
2022/11/23 04:56:42;;;;;;;12.20;2.83;;;;;;;7.68;96.05;99626.84;5040425;28;20195;-70
2022/11/23 04:59:07;;;;;;;11.73;2.28;;;;;;;7.67;95.92;99633.72;5039531;28;20172;-69
2022/11/23 05:01:32;;;;;;;17.40;3.40;;;;;;;7.65;96.00;99628.53;5042978;28;20034;-69
2022/11/23 05:03:57;;;;;;;15.45;3.00;;;;;;;7.64;95.75;99625.91;5042633;28;20029;-70
2022/11/23 05:06:23;;;;;;;12.27;2.97;;;;;;;7.60;95.78;99622.41;5031300;28;20176;-69
2022/11/23 05:08:48;;;;;;;12.75;3.03;;;;;;;7.57;95.23;99626.66;5039728;28;20111;-69
2022/11/23 05:11:13;;;;;;;14.45;3.17;;;;;;;7.54;95.20;99618.84;5044612;28;20025;-69
2022/11/23 05:13:38;;;;;;;8.95;2.63;;;;;;;7.51;95.31;99621.38;5032556;28;20029;-69
2022/11/23 05:16:04;;;;;;;15.40;3.58;;;;;;;7.47;95.18;99617.84;5030476;28;20057;-69
2022/11/23 05:18:29;;;;;;;13.32;3.22;;;;;;;7.43;95.03;99622.13;5044986;28;20068;-69
2022/11/23 05:20:54;;;;;;;15.05;2.90;;;;;;;7.40;95.18;99619.50;5046700;28;20279;-69
2022/11/23 05:23:20;;;;;;;11.25;2.45;;;;;;;7.38;95.27;99615.13;5043853;28;20067;-69
2022/11/23 05:25:45;;;;;;;14.93;3.20;;;;;;;7.37;95.67;99616.84;5053062;28;20044;-69
2022/11/23 05:28:15;;;;;;;11.65;2.67;;;;;;;7.35;95.59;99617.66;5039385;28;20088;-69
2022/11/23 05:30:40;;;;;;;15.65;4.25;;;;;;;7.34;95.54;99616.78;5045445;28;20036;-69
2022/11/23 05:33:05;;;;;;;12.63;2.95;;;;;;;7.33;95.75;99620.25;5046903;28;20088;-69
2022/11/23 05:35:31;;;;;;;11.98;3.08;;;;;;;7.34;95.33;99624.53;5046750;28;20274;-70
2022/11/23 05:37:56;;;;;;;14.10;3.15;;;;;;;7.34;95.63;99618.50;5046031;28;20029;-70
2022/11/23 05:40:21;;;;;;;12.15;3.45;;;;;;;7.33;95.90;99617.66;5046488;28;20018;-70
2022/11/23 05:42:47;;;;;;;16.52;4.05;;;;;;;7.34;95.56;99623.69;5048240;28;20064;-69
2022/11/23 05:45:12;;;;;;;15.88;3.55;;;;;;;7.32;95.83;99616.75;5045315;28;20041;-69
2022/11/23 05:47:37;;;;;;;15.88;3.45;;;;;;;7.31;95.59;99624.50;5043395;28;20083;-69
2022/11/23 05:50:03;;;;;;;15.50;3.05;;;;;;;7.29;95.65;99621.88;5040900;28;20148;-69
2022/11/23 05:52:28;;;;;;;17.30;3.28;;;;;;;7.27;95.35;99626.19;5041564;28;20038;-69
2022/11/23 05:54:54;;;;;;;17.30;3.13;;;;;;;7.27;95.20;99623.59;5041700;28;20161;-69
2022/11/23 05:57:21;;;;;;;13.57;3.60;;;;;;;7.26;95.35;99628.75;5043453;28;20029;-70
2022/11/23 05:59:46;;;;;;;16.70;3.28;;;;;;;7.26;95.68;99626.16;5039214;28;20076;-69
2022/11/23 06:02:12;;;;;;;13.30;3.25;;;;;;;7.25;95.19;99634.78;5035153;28;20256;-69
2022/11/23 06:04:37;;;;;;;19.88;3.47;;;;;;;7.23;95.23;99629.56;5042696;28;20017;-69
2022/11/23 06:07:02;;;;;;;13.20;3.03;;;;;;;7.22;95.69;99627.81;5039151;28;20228;-69
2022/11/23 06:09:27;;;;;;;16.73;3.83;;;;;;;7.22;95.82;99632.13;5036840;28;20029;-69
2022/11/23 06:11:53;;;;;;;12.23;3.22;;;;;;;7.21;95.15;99627.78;5035074;28;20026;-69
2022/11/23 06:14:18;;;;;;;15.73;2.97;;;;;;;7.23;95.72;99633.88;5033447;28;20028;-69
2022/11/23 06:16:43;;;;;;;11.60;2.70;;;;;;;7.23;95.75;99631.28;5038948;28;20271;-70
2022/11/23 06:19:09;;;;;;;14.43;3.20;;;;;;;7.23;95.78;99636.47;5031268;28;20033;-69
2022/11/23 06:21:34;;;;;;;17.38;3.08;;;;;;;7.23;95.84;99637.34;5035653;28;20014;-69
2022/11/23 06:23:59;;;;;;;15.43;2.53;;;;;;;7.23;95.99;99637.34;5039863;28;20038;-69
2022/11/23 06:26:24;;;;;;;14.25;3.05;;;;;;;7.24;95.68;99639.09;5037233;28;20025;-69
2022/11/23 06:28:50;;;;;;;15.80;3.00;;;;;;;7.24;95.79;99641.69;5042152;28;20176;-69
2022/11/23 06:31:15;;;;;;;13.38;2.72;;;;;;;7.24;95.91;99635.59;5042552;28;20096;-69
2022/11/23 06:33:41;;;;;;;11.50;2.53;;;;;;;7.25;96.11;99637.34;5034992;28;20032;-68
2022/11/23 06:36:08;;;;;;;14.55;3.53;;;;;;;7.23;96.14;99642.50;5041139;28;20044;-69
2022/11/23 06:38:34;;;;;;;13.30;2.85;;;;;;;7.21;96.60;99641.63;5037494;28;20028;-69
2022/11/23 06:41:00;;;;;;;13.50;3.33;;;;;;;7.23;96.55;99641.66;5038210;28;20010;-69
2022/11/23 06:43:26;;;;;;;11.90;3.35;;;;;;;7.20;96.86;99636.41;4996332;28;1050616;-69
2022/11/23 06:45:52;;;;;;;14.38;3.25;;;;;;;7.19;97.02;99639.84;5038316;28;20025;-69
2022/11/23 06:48:17;;;;;;;15.00;2.83;;;;;;;7.18;97.38;99638.09;5034728;28;20053;-69
2022/11/23 06:50:42;;;;;;;11.20;2.70;;;;;;;7.16;96.90;99638.06;5042950;28;20236;-69
2022/11/23 06:53:11;;;;;;;17.33;3.13;;;;;;;7.16;96.72;99645.84;5035401;28;20111;-70
2022/11/23 06:55:36;;;;;;;13.70;2.95;;;;;;;7.15;96.94;99651.84;5040677;28;20018;-69
2022/11/23 06:58:01;;;;;;;12.60;2.65;;;;;;;7.16;96.56;99653.63;5036719;28;20032;-69
2022/11/23 07:00:26;;;;;;;12.77;3.42;;;;;;;7.15;96.35;99659.63;5042089;28;20087;-69
2022/11/23 07:02:53;;;;;;;11.10;2.45;;;;;;;7.16;96.32;99658.78;5041465;28;20278;-69
2022/11/23 07:05:19;;;;;;;10.85;2.83;;;;;;;7.16;96.14;99668.28;5031237;28;20029;-69
2022/11/23 07:07:45;;;;;;;14.65;2.88;;;;;;;7.15;96.02;99670.00;5041120;28;20025;-70
2022/11/23 07:10:11;;;;;;;13.88;2.80;;;;;;;7.14;95.67;99669.13;5028843;28;20291;-70
2022/11/23 07:12:36;;;;;;;15.88;3.22;;;;;;;7.12;95.57;99668.22;5037165;28;20045;-69
2022/11/23 07:15:01;;;;;;;13.13;2.53;;;;;;;7.11;95.03;99683.72;5040207;28;20017;-69
2022/11/23 07:17:27;;;;;;;11.68;2.42;;;;;;;7.10;95.16;99680.28;5041359;28;20048;-70
2022/11/23 07:19:52;;;;;;;13.02;2.20;;;;;;;7.09;94.82;99688.88;5036405;28;20024;-70
2022/11/23 07:22:17;;;;;;;10.35;2.30;;;;;;;7.09;94.74;99690.59;5035899;28;20024;-69
2022/11/23 07:24:43;;;;;;;11.18;2.47;;;;;;;7.09;94.72;99688.88;5031405;28;20291;-69
2022/11/23 07:27:08;;;;;;;12.60;2.70;;;;;;;7.09;94.69;99706.16;5036992;28;20021;-69
2022/11/23 07:29:33;;;;;;;11.32;2.20;;;;;;;7.05;94.47;99705.19;5040062;28;20013;-69
2022/11/23 07:31:59;;;;;;;13.10;2.60;;;;;;;7.04;94.31;99693.13;5043472;28;20017;-69
2022/11/23 07:34:24;;;;;;;14.25;2.53;;;;;;;7.01;94.55;99700.84;5040398;28;20045;-70
2022/11/23 07:36:49;;;;;;;10.70;2.20;;;;;;;6.99;94.04;99699.03;5043770;28;20148;-69
2022/11/23 07:39:15;;;;;;;9.65;2.40;;;;;;;6.95;94.25;99706.75;5034864;28;20022;-68
2022/11/23 07:41:40;;;;;;;11.18;2.28;;;;;;;6.92;94.18;99713.59;5034415;28;20064;-69
2022/11/23 07:44:05;;;;;;;12.88;2.30;;;;;;;6.91;94.34;99714.44;5037484;28;20240;-69
2022/11/23 07:46:31;;;;;;;15.52;2.70;;;;;;;6.89;93.78;99716.97;5044243;28;20029;-69
2022/11/23 07:49:00;;;;;;;13.25;2.55;;;;;;;6.87;93.84;99721.25;5040892;28;20267;-70
2022/11/23 07:51:26;;;;;;;12.18;2.38;;;;;;;6.85;93.95;99722.97;5043224;28;20084;-69
2022/11/23 07:53:51;;;;;;;9.85;2.05;;;;;;;6.85;93.72;99733.31;5031974;28;20044;-68
2022/11/23 07:56:16;;;;;;;10.60;2.63;;;;;;;6.84;94.01;99730.69;5039551;28;20331;-69
2022/11/23 07:58:41;;;;;;;10.02;2.72;;;;;;;6.84;93.41;99726.38;5029061;28;20085;-69
2022/11/23 08:01:07;;;;;;;17.95;2.70;;;;;;;6.87;93.78;99735.94;5040370;28;20267;-69
2022/11/23 08:03:32;;;;;;;10.23;2.13;;;;;;;6.86;93.34;99732.44;5038621;28;20024;-69
2022/11/23 08:05:57;;;;;;;8.52;2.33;;;;;;;6.87;93.63;99733.34;5029707;28;20164;-70
2022/11/23 08:08:23;;;;;;;12.00;2.70;;;;;;;6.88;93.17;99732.47;5034898;28;20045;-69
2022/11/23 08:10:48;;;;;;;11.90;2.15;;;;;;;6.88;93.12;99738.56;5041917;28;20059;-69
2022/11/23 08:13:14;;;;;;;12.30;2.75;;;;;;;6.89;92.95;99736.81;5048201;28;20047;-69
2022/11/23 08:15:39;;;;;;;11.20;2.38;;;;;;;6.89;93.48;99734.25;5042520;28;20022;-69
2022/11/23 08:18:04;;;;;;;12.48;2.53;;;;;;;6.90;92.17;99738.59;5032285;28;20290;-69
2022/11/23 08:20:30;;;;;;;14.65;2.53;;;;;;;6.93;92.09;99733.47;5030052;28;20068;-70
2022/11/23 08:22:56;;;;;;;13.52;2.60;;;;;;;6.94;92.27;99730.03;5030749;28;20067;-69
2022/11/23 08:25:22;;;;;;;13.07;2.60;;;;;;;6.95;92.19;99736.94;5028096;28;20025;-70
2022/11/23 08:28:03;;;;;;;13.52;2.55;;;;;;;6.97;91.79;99735.28;5029680;28;20129;-69
2022/11/23 08:30:30;;;;;;;13.18;2.67;;;;;;;7.00;92.33;99737.94;5039219;28;20130;-68
2022/11/23 08:32:55;;;;;;;14.18;3.10;;;;;;;6.99;92.28;99738.75;5041446;28;20347;-69
2022/11/23 08:35:21;;;;;;;13.00;2.45;;;;;;;7.00;91.82;99740.50;5042369;28;20059;-69
2022/11/23 08:37:46;;;;;;;12.23;2.63;;;;;;;7.02;91.81;99745.72;5036771;28;20088;-69
2022/11/23 08:40:12;;;;;;;12.82;2.40;;;;;;;7.04;91.62;99742.31;5040993;28;20076;-70
2022/11/23 08:42:37;;;;;;;11.82;2.80;;;;;;;7.05;91.09;99749.22;5037676;28;20424;-69
2022/11/23 08:45:04;;;;;;;11.40;2.20;;;;;;;7.08;91.19;99753.59;5029715;28;20042;-69
2022/11/23 08:47:30;;;;;;;9.10;2.20;;;;;;;7.08;90.71;99748.44;5035110;28;20021;-69
2022/11/23 08:49:55;;;;;;;9.85;2.30;;;;;;;7.10;90.85;99745.03;5042207;28;20223;-69
2022/11/23 08:52:21;;;;;;;13.18;2.30;;;;;;;7.13;89.89;99746.81;5033567;28;20030;-69
2022/11/23 08:54:46;;;;;;;9.27;2.08;;;;;;;7.13;90.22;99742.50;5035515;28;20009;-69
2022/11/23 08:57:11;;;;;;;11.80;2.40;;;;;;;7.14;90.08;99746.84;5039527;28;20088;-69
2022/11/23 08:59:36;;;;;;;10.77;2.63;;;;;;;7.16;89.83;99739.09;5032667;28;20272;-69
2022/11/23 09:02:02;;;;;;;9.73;2.47;;;;;;;7.18;89.64;99739.13;5033323;28;20024;-69
2022/11/23 09:04:29;;;;;;;9.50;2.58;;;;;;;7.20;90.02;99733.13;5039871;28;20287;-68
2022/11/23 09:06:54;;;;;;;9.35;2.38;;;;;;;7.24;89.45;99741.81;5042479;28;20022;-69
2022/11/23 09:09:20;;;;;;;11.02;2.33;;;;;;;7.25;90.13;99738.41;5035802;28;20026;-69
2022/11/23 09:11:45;;;;;;;9.85;2.40;;;;;;;7.27;89.85;99741.88;5035047;28;20248;-69
2022/11/23 09:14:11;;;;;;;8.68;2.17;;;;;;;7.29;88.69;99735.03;5027525;28;20025;-69
2022/11/23 09:16:36;;;;;;;9.30;2.40;;;;;;;7.31;89.68;99738.50;5032963;28;20017;-69
2022/11/23 09:19:01;;;;;;;11.95;2.78;;;;;;;7.34;89.41;99727.34;5042238;28;20036;-69
2022/11/23 09:21:32;;;;;;;12.10;2.95;;;;;;;7.35;90.06;99724.78;5036377;28;20033;-69
2022/11/23 09:23:57;;;;;;;15.27;2.20;;;;;;;7.38;88.32;99719.63;5040897;28;20089;-70
2022/11/23 09:26:22;;;;;;;11.50;2.47;;;;;;;7.40;88.48;99717.06;5032738;28;20062;-67
2022/11/23 09:28:48;;;;;;;15.30;3.15;;;;;;;7.43;88.90;99717.13;5036055;28;20175;-67
2022/11/23 09:31:13;;;;;;;11.23;2.60;;;;;;;7.45;89.36;99716.31;5038763;28;20021;-67
2022/11/23 09:33:38;;;;;;;7.43;1.90;;;;;;;7.46;89.27;99710.28;5031668;28;20275;-67
2022/11/23 09:36:04;;;;;;;10.52;2.17;;;;;;;7.49;88.98;99705.16;5035480;28;20021;-67
2022/11/23 09:38:30;;;;;;;11.15;2.10;;;;;;;7.52;88.64;99711.22;5029690;28;20149;-67
2022/11/23 09:41:21;;;;;;;10.98;2.03;;;;;;;7.55;88.03;99690.56;5035327;28;20268;-67
2022/11/23 09:44:01;;;;;;;10.65;1.92;;;;;;;7.52;87.20;99704.34;5033649;28;20034;-67
2022/11/23 09:46:59;;;;;;;13.20;2.20;;;;;;;7.53;87.30;99693.16;5030273;28;20435;-68
2022/11/23 09:49:51;;;;;;;13.10;2.33;;;;;;;7.54;88.28;99694.00;5029412;28;20028;-68
2022/11/23 09:52:20;;;;;;;15.50;2.63;;;;;;;7.55;86.92;99691.44;5014996;28;20029;-68
2022/11/23 09:54:48;;;;;;;9.80;2.63;;;;;;;7.55;86.53;99686.25;5036106;28;20299;-67
2022/11/23 09:57:19;;;;;;;10.65;2.38;;;;;;;7.54;87.04;99671.53;5038303;28;20037;-68
2022/11/23 09:59:54;;;;;;;8.38;1.83;;;;;;;7.56;86.50;99668.97;5040511;28;20036;-67
2022/11/23 10:02:22;;;;;;;10.43;2.33;;;;;;;7.58;87.92;99669.88;5035653;28;20041;-68
2022/11/23 10:04:49;;;;;;;9.25;2.05;;;;;;;7.60;86.14;99661.28;5044434;28;20069;-67
2022/11/23 10:07:48;;;;;;;7.95;2.05;;;;;;;7.62;87.16;99657.00;5041961;28;20021;-67
2022/11/23 10:10:54;;;;;;;10.10;2.50;;;;;;;7.68;86.88;99663.16;5034856;28;20077;-68
2022/11/23 10:13:35;;;;;;;10.13;1.73;;;;;;;7.70;86.55;99656.25;5030021;28;20101;-68
2022/11/23 10:16:35;;;;;;;5.00;1.52;;;;;;;7.72;86.63;99652.84;5041314;28;20021;-67
2022/11/23 10:19:12;;;;;;;10.27;1.70;;;;;;;7.74;85.22;99653.72;5044746;28;20021;-68
2022/11/23 10:22:07;;;;;;;8.85;1.95;;;;;;;7.78;85.83;99654.66;5032906;28;20302;-68
2022/11/23 10:24:41;;;;;;;9.10;1.67;;;;;;;7.82;86.27;99652.13;5044191;28;20040;-67
2022/11/23 10:27:16;;;;;;;10.02;1.92;;;;;;;7.88;86.52;99647.88;5043372;28;20044;-67
2022/11/23 10:29:42;;;;;;;7.68;2.08;;;;;;;7.91;85.57;99654.00;5032969;28;20021;-67
2022/11/23 10:32:49;;;;;;;9.80;1.75;;;;;;;7.96;86.00;99649.72;5038562;28;20033;-68
2022/11/23 10:35:18;;;;;;;8.50;2.05;;;;;;;8.01;85.17;99655.00;5009467;28;20096;-67
2022/11/23 10:37:43;;;;;;;6.97;1.63;;;;;;;8.07;83.90;99665.47;5041802;28;20079;-67
2022/11/23 10:40:24;;;;;;;7.20;1.80;;;;;;;8.10;84.89;99655.13;5045190;28;20018;-67
2022/11/23 10:42:57;;;;;;;6.82;1.45;;;;;;;8.13;84.99;99649.97;5030906;28;20092;-66
2022/11/23 10:45:24;;;;;;;10.25;1.92;;;;;;;8.16;83.26;99650.00;5041089;28;20049;-67
2022/11/23 10:47:58;;;;;;;6.65;1.38;;;;;;;8.22;84.27;99643.19;5039778;28;20021;-65
2022/11/23 10:50:28;;;;;;;9.13;1.70;;;;;;;8.28;85.06;99645.84;5031452;28;20105;-65
2022/11/23 10:53:00;;;;;;;8.68;1.83;;;;;;;8.32;84.08;99642.44;5042500;28;20138;-65
2022/11/23 10:55:29;;;;;;;10.48;2.15;;;;;;;8.36;84.22;99644.25;5041883;28;20032;-65
2022/11/23 10:57:55;;;;;;;7.85;1.52;;;;;;;8.39;83.82;99646.88;5040068;28;20029;-65
2022/11/23 11:00:22;;;;;;;8.70;2.03;;;;;;;8.39;84.47;99636.50;5031651;28;20138;-65
2022/11/23 11:02:50;;;;;;;9.68;2.00;;;;;;;8.43;84.53;99643.47;5036710;28;20216;-65
2022/11/23 11:05:35;;;;;;;6.40;1.70;;;;;;;8.51;85.85;99634.06;5042613;28;20097;-64
2022/11/23 11:08:11;;;;;;;6.50;1.80;;;;;;;8.58;83.16;99634.16;5036859;28;20025;-65
2022/11/23 11:11:01;;;;;;;9.75;2.00;;;;;;;8.61;83.25;99621.22;5039882;28;20029;-65
2022/11/23 11:13:37;;;;;;;6.43;1.40;;;;;;;8.64;83.18;99613.44;5039129;28;20070;-65
2022/11/23 11:16:05;;;;;;;9.52;1.70;;;;;;;8.66;82.53;99611.72;5033356;28;20337;-65
2022/11/23 11:18:35;;;;;;;9.50;1.83;;;;;;;8.66;83.39;99610.03;5044190;28;20025;-65
2022/11/23 11:21:02;;;;;;;7.93;1.85;;;;;;;8.67;81.87;99613.47;5044408;28;20268;-65
2022/11/23 11:23:29;;;;;;;6.93;1.63;;;;;;;8.66;82.21;99604.84;5041090;28;20033;-65
2022/11/23 11:26:29;;;;;;;8.95;1.80;;;;;;;8.67;82.82;99611.75;5032028;28;20017;-64
2022/11/23 11:28:56;;;;;;;9.82;1.77;;;;;;;8.72;81.74;99597.94;5026039;28;20140;-65
2022/11/23 11:31:50;;;;;;;7.53;1.75;;;;;;;8.76;82.21;99594.53;5038914;28;20017;-65
2022/11/23 11:34:42;;;;;;;7.75;1.30;;;;;;;8.78;82.65;99588.50;5044025;28;20021;-65
2022/11/23 11:37:07;;;;;;;10.13;2.15;;;;;;;8.80;80.52;99586.78;5043103;28;20018;-65